createdAt,value
2018-07-02T00:00:43.124Z,5.62
2018-07-02T00:03:11.942Z,4.90
2018-07-02T00:05:51.102Z,7.45
2018-07-02T00:08:19.202Z,4.10
2018-07-02T00:10:47.212Z,3.35
2018-07-02T00:13:15.250Z,3.52
2018-07-02T00:15:43.227Z,4.72
2018-07-02T00:18:11.369Z,4.65
2018-07-02T00:20:39.556Z,4.75
2018-07-02T00:23:07.666Z,4.30
2018-07-02T00:25:35.626Z,3.47
2018-07-02T00:28:03.775Z,6.05
2018-07-02T00:30:31.786Z,7.45
2018-07-02T00:32:59.835Z,6.50
2018-07-02T00:35:27.962Z,4.50
2018-07-02T00:37:55.915Z,5.17
2018-07-02T00:40:24.000Z,5.85
2018-07-02T00:42:52.017Z,5.65
2018-07-02T00:45:20.051Z,4.83
2018-07-02T00:47:48.080Z,3.72
2018-07-02T00:50:16.074Z,3.80
2018-07-02T00:52:44.126Z,6.53
2018-07-02T00:55:12.118Z,8.08
2018-07-02T00:57:40.114Z,5.20
2018-07-02T01:00:15.667Z,5.97
2018-07-02T01:02:44.042Z,5.80
2018-07-02T01:05:12.846Z,7.90
2018-07-02T01:07:41.529Z,6.15
2018-07-02T01:10:09.975Z,7.12
2018-07-02T01:12:37.978Z,7.22
2018-07-02T01:15:06.866Z,6.70
2018-07-02T01:17:35.933Z,8.03
2018-07-02T01:20:04.058Z,3.90
2018-07-02T01:22:32.089Z,7.62
2018-07-02T01:25:00.238Z,5.25
2018-07-02T01:27:32.658Z,6.92
2018-07-02T01:30:00.744Z,7.83
2018-07-02T01:32:28.773Z,5.72
2018-07-02T01:34:56.787Z,6.87
2018-07-02T01:37:24.894Z,5.80
2018-07-02T01:39:52.905Z,3.55
2018-07-02T01:42:21.042Z,4.67
2018-07-02T01:44:48.991Z,5.47
2018-07-02T01:47:17.003Z,4.97
2018-07-02T01:49:45.051Z,6.28
2018-07-02T01:52:13.093Z,5.80
2018-07-02T01:54:41.108Z,4.67
2018-07-02T01:57:09.234Z,5.90
2018-07-02T01:59:37.242Z,4.58
2018-07-02T02:02:05.349Z,4.62
2018-07-02T02:04:33.786Z,5.97
2018-07-02T02:07:02.493Z,4.03
2018-07-02T02:09:30.462Z,5.00
2018-07-02T02:11:58.463Z,7.60
2018-07-02T02:14:26.495Z,6.58
2018-07-02T02:16:54.505Z,9.23
2018-07-02T02:19:22.607Z,5.40
2018-07-02T02:21:50.595Z,4.90
2018-07-02T02:24:18.711Z,5.95
2018-07-02T02:26:46.764Z,4.17
2018-07-02T02:29:14.858Z,4.53
2018-07-02T02:31:42.916Z,5.47
2018-07-02T02:34:11.028Z,4.35
2018-07-02T02:36:39.093Z,5.55
2018-07-02T02:39:08.269Z,3.87
2018-07-02T02:41:36.401Z,4.03
2018-07-02T02:44:04.846Z,4.45
2018-07-02T02:46:32.922Z,6.67
2018-07-02T02:49:00.955Z,3.37
2018-07-02T02:51:29.313Z,4.80
2018-07-02T02:53:57.411Z,7.42
2018-07-02T02:56:25.470Z,3.30
2018-07-02T02:58:53.618Z,4.33
2018-07-02T03:01:21.661Z,4.78
2018-07-02T03:03:49.735Z,6.85
2018-07-02T03:06:17.708Z,4.97
2018-07-02T03:08:46.320Z,4.95
2018-07-02T03:11:14.314Z,4.00
2018-07-02T03:13:42.374Z,9.50
2018-07-02T03:16:10.522Z,4.17
2018-07-02T03:18:38.617Z,5.33
2018-07-02T03:21:06.726Z,5.97
2018-07-02T03:23:34.802Z,4.35
2018-07-02T03:26:02.823Z,6.10
2018-07-02T03:28:30.845Z,4.67
2018-07-02T03:30:58.886Z,6.78
2018-07-02T03:33:26.884Z,6.15
2018-07-02T03:35:55.027Z,5.50
2018-07-02T03:38:23.114Z,5.25
2018-07-02T03:40:51.107Z,5.33
2018-07-02T03:43:19.089Z,5.37
2018-07-02T03:45:47.201Z,7.12
2018-07-02T03:48:15.218Z,5.67
2018-07-02T03:50:43.218Z,8.45
2018-07-02T03:53:11.491Z,6.67
2018-07-02T03:55:39.625Z,8.20
2018-07-02T03:58:07.620Z,5.72
2018-07-02T04:00:35.655Z,5.28
2018-07-02T04:03:03.665Z,5.40
2018-07-02T04:05:31.769Z,6.12
2018-07-02T04:07:59.988Z,5.75
2018-07-02T04:10:28.061Z,7.78
2018-07-02T04:12:56.662Z,4.67
2018-07-02T04:15:24.687Z,6.53
2018-07-02T04:17:52.745Z,5.35
2018-07-02T04:20:20.789Z,5.08
2018-07-02T04:22:48.796Z,7.58
2018-07-02T04:25:16.938Z,6.80
2018-07-02T04:27:45.124Z,4.25
2018-07-02T04:30:13.169Z,4.78
2018-07-02T04:32:41.298Z,8.05
2018-07-02T04:35:09.371Z,5.58
2018-07-02T04:37:37.592Z,8.98
2018-07-02T04:40:05.714Z,4.17
2018-07-02T04:42:33.929Z,10.10
2018-07-02T04:45:02.482Z,7.00
2018-07-02T04:47:30.422Z,6.40
2018-07-02T04:49:58.503Z,5.55
2018-07-02T04:52:26.590Z,6.80
2018-07-02T04:54:54.749Z,5.72
2018-07-02T04:57:22.801Z,7.05
2018-07-02T04:59:50.921Z,7.25
2018-07-02T05:02:19.104Z,7.62
2018-07-02T05:04:47.137Z,6.28
2018-07-02T05:07:15.175Z,6.67
2018-07-02T05:09:43.484Z,7.30
2018-07-02T05:12:11.675Z,6.80
2018-07-02T05:14:40.534Z,6.47
2018-07-02T05:17:08.628Z,6.20
2018-07-02T05:19:36.694Z,9.33
2018-07-02T05:22:05.608Z,8.58
2018-07-02T05:24:33.694Z,5.37
2018-07-02T05:27:02.749Z,5.97
2018-07-02T05:29:31.955Z,6.40
2018-07-02T05:32:00.350Z,5.90
2018-07-02T05:34:28.460Z,8.60
2018-07-02T05:36:56.582Z,6.25
2018-07-02T05:39:24.984Z,7.03
2018-07-02T05:41:53.050Z,6.20
2018-07-02T05:44:20.987Z,7.05
2018-07-02T05:46:49.338Z,5.55
2018-07-02T05:49:17.813Z,7.72
2018-07-02T05:57:32.791Z,7.20
2018-07-02T06:00:01.127Z,9.48
2018-07-02T06:02:29.140Z,7.22
2018-07-02T06:04:57.148Z,9.45
2018-07-02T06:07:25.228Z,7.65
2018-07-02T06:09:53.263Z,9.63
2018-07-02T06:12:21.414Z,6.40
2018-07-02T06:14:50.212Z,7.00
2018-07-02T06:17:18.012Z,6.72
2018-07-02T06:19:46.259Z,5.22
2018-07-02T06:22:14.288Z,8.95
2018-07-02T06:24:42.242Z,7.05
2018-07-02T06:27:10.302Z,9.98
2018-07-02T06:29:38.347Z,5.78
2018-07-02T06:32:06.964Z,6.90
2018-07-02T06:34:35.169Z,6.40
2018-07-02T06:37:03.253Z,7.12
2018-07-02T06:39:31.254Z,7.03
2018-07-02T06:41:59.827Z,7.78
2018-07-02T06:44:28.024Z,5.55
2018-07-02T06:46:56.406Z,6.50
2018-07-02T06:49:24.515Z,7.33
2018-07-02T06:51:52.787Z,7.22
2018-07-02T06:54:22.232Z,6.65
2018-07-02T06:56:51.005Z,7.20
2018-07-02T06:59:19.735Z,7.28
2018-07-02T07:01:50.201Z,6.72
2018-07-02T07:04:18.231Z,5.75
2018-07-02T07:06:46.504Z,5.80
2018-07-02T07:09:14.575Z,6.92
2018-07-02T07:11:42.692Z,8.70
2018-07-02T07:14:10.837Z,8.23
2018-07-02T07:16:39.028Z,9.38
2018-07-02T07:19:07.060Z,7.72
2018-07-02T07:21:35.392Z,6.70
2018-07-02T07:24:03.416Z,7.75
2018-07-02T07:26:31.580Z,5.37
2018-07-02T07:28:59.835Z,7.60
2018-07-02T07:31:28.085Z,7.35
2018-07-02T07:33:56.115Z,7.92
2018-07-02T07:36:24.361Z,7.10
2018-07-02T07:38:52.443Z,10.40
2018-07-02T07:41:20.580Z,10.00
2018-07-02T07:43:49.025Z,9.78
2018-07-02T07:46:17.109Z,8.48
2018-07-02T07:48:45.363Z,10.90
2018-07-02T07:51:13.564Z,8.75
2018-07-02T07:53:41.627Z,10.20
2018-07-02T07:56:09.719Z,7.55
2018-07-02T07:58:37.934Z,6.60
2018-07-02T08:01:05.992Z,7.75
2018-07-02T08:03:34.438Z,9.10
2018-07-02T08:06:02.854Z,7.75
2018-07-02T08:08:31.035Z,9.30
2018-07-02T08:10:59.226Z,7.78
2018-07-02T08:13:27.475Z,8.75
2018-07-02T08:15:55.821Z,8.23
2018-07-02T08:18:23.868Z,6.60
2018-07-02T08:20:51.907Z,11.53
2018-07-02T08:23:20.062Z,5.97
2018-07-02T08:25:48.170Z,5.50
2018-07-02T08:28:16.252Z,8.05
2018-07-02T08:30:44.287Z,8.58
2018-07-02T08:33:12.370Z,6.78
2018-07-02T08:35:40.305Z,11.25
2018-07-02T08:38:08.431Z,10.10
2018-07-02T08:40:36.523Z,10.43
2018-07-02T08:43:04.543Z,9.48
2018-07-02T08:45:32.692Z,9.08
2018-07-02T08:48:00.678Z,10.05
2018-07-02T08:50:28.615Z,9.63
2018-07-02T08:52:56.767Z,9.73
2018-07-02T08:55:24.722Z,7.87
2018-07-02T08:57:52.696Z,8.95
2018-07-02T09:00:21.005Z,9.03
2018-07-02T09:02:48.989Z,5.35
2018-07-02T09:05:17.022Z,7.28
2018-07-02T09:07:45.006Z,9.50
2018-07-02T09:10:13.099Z,7.03
2018-07-02T09:12:41.087Z,6.60
2018-07-02T09:15:09.015Z,8.60
2018-07-02T09:17:37.222Z,12.55
2018-07-02T09:20:05.180Z,6.83
2018-07-02T09:22:33.274Z,9.48
2018-07-02T09:25:01.672Z,8.85
2018-07-02T09:27:29.681Z,9.30
2018-07-02T09:29:57.803Z,9.58
2018-07-02T09:32:25.891Z,5.97
2018-07-02T09:34:53.923Z,9.83
2018-07-02T09:37:21.987Z,9.00
2018-07-02T09:39:49.975Z,7.00
2018-07-02T09:42:18.642Z,7.15
2018-07-02T09:44:46.772Z,10.23
2018-07-02T09:47:14.782Z,11.38
2018-07-02T09:49:42.820Z,10.38
2018-07-02T09:52:10.913Z,5.50
2018-07-02T09:54:39.085Z,10.50
2018-07-02T09:57:07.087Z,8.80
2018-07-02T09:59:35.157Z,6.65
2018-07-02T10:02:03.289Z,6.42
2018-07-02T10:04:31.531Z,7.03
2018-07-02T10:06:59.581Z,7.60
2018-07-02T10:09:27.571Z,6.45
2018-07-02T10:11:55.653Z,10.50
2018-07-02T10:14:23.791Z,6.15
2018-07-02T10:16:51.864Z,10.55
2018-07-02T10:19:20.760Z,7.75
2018-07-02T10:21:48.774Z,8.98
2018-07-02T10:24:16.847Z,7.05
2018-07-02T10:26:44.773Z,6.35
2018-07-02T10:29:12.852Z,7.83
2018-07-02T10:31:41.094Z,6.70
2018-07-02T10:34:09.066Z,8.03
2018-07-02T10:36:37.164Z,7.80
2018-07-02T10:39:07.546Z,9.38
2018-07-02T10:41:35.866Z,7.12
2018-07-02T10:44:04.045Z,7.53
2018-07-02T10:46:32.110Z,7.67
2018-07-02T10:49:00.173Z,11.83
2018-07-02T10:51:28.326Z,5.62
2018-07-02T10:53:56.405Z,8.30
2018-07-02T10:56:24.806Z,7.58
2018-07-02T10:58:52.799Z,7.40
2018-07-02T11:01:20.874Z,7.40
2018-07-02T11:03:48.894Z,8.55
2018-07-02T11:06:16.950Z,7.83
2018-07-02T11:08:46.079Z,7.35
2018-07-02T11:11:14.280Z,8.95
2018-07-02T11:13:42.258Z,6.87
2018-07-02T11:16:10.340Z,6.95
2018-07-02T11:18:38.397Z,6.47
2018-07-02T11:21:06.384Z,5.97
2018-07-02T11:23:34.452Z,8.63
2018-07-02T11:26:02.501Z,6.47
2018-07-02T11:28:30.579Z,8.00
2018-07-02T11:30:58.602Z,7.58
2018-07-02T11:33:26.701Z,8.88
2018-07-02T11:35:54.830Z,7.53
2018-07-02T11:38:22.965Z,8.08
2018-07-02T11:40:50.986Z,8.75
2018-07-02T11:43:19.175Z,7.90
2018-07-02T11:45:47.279Z,6.08
2018-07-02T11:48:15.290Z,7.42
2018-07-02T11:50:43.484Z,6.50
2018-07-02T11:53:11.595Z,7.55
2018-07-02T11:55:39.563Z,5.85
2018-07-02T11:58:08.349Z,6.87
2018-07-02T12:00:36.466Z,8.30
2018-07-02T12:03:04.560Z,9.53
2018-07-02T12:05:32.599Z,8.80
2018-07-02T12:08:00.871Z,8.50
2018-07-02T12:10:28.908Z,7.90
2018-07-02T12:12:56.949Z,9.35
2018-07-02T12:15:25.116Z,6.37
2018-07-02T12:17:53.129Z,7.42
2018-07-02T12:20:21.178Z,8.80
2018-07-02T12:22:49.500Z,7.78
2018-07-02T12:25:17.518Z,10.10
2018-07-02T12:27:45.609Z,10.48
2018-07-02T12:30:13.642Z,8.68
2018-07-02T12:32:41.580Z,10.78
2018-07-02T12:35:10.179Z,9.15
2018-07-02T12:37:38.193Z,8.78
2018-07-02T12:40:06.239Z,6.37
2018-07-02T12:42:34.372Z,7.20
2018-07-02T12:45:02.501Z,6.78
2018-07-02T12:47:30.540Z,7.67
2018-07-02T12:49:58.460Z,6.15
2018-07-02T12:52:26.454Z,8.20
2018-07-02T12:54:54.447Z,8.13
2018-07-02T12:57:22.702Z,7.10
2018-07-02T12:59:50.974Z,6.58
2018-07-02T13:02:19.034Z,6.12
2018-07-02T13:04:47.105Z,6.22
2018-07-02T13:07:15.090Z,6.80
2018-07-02T13:09:43.149Z,7.22
2018-07-02T13:12:11.152Z,9.38
2018-07-02T13:14:39.377Z,9.38
2018-07-02T13:17:07.406Z,10.43
2018-07-02T13:19:35.483Z,7.67
2018-07-02T13:22:03.602Z,7.03
2018-07-02T13:24:31.628Z,6.22
2018-07-02T13:26:59.962Z,8.73
2018-07-02T13:29:27.874Z,8.28
2018-07-02T13:31:56.116Z,8.57
2018-07-02T13:34:24.259Z,7.45
2018-07-02T13:36:52.325Z,9.33
2018-07-02T13:39:20.469Z,6.65
2018-07-02T13:41:48.562Z,5.10
2018-07-02T13:44:16.791Z,8.13
2018-07-02T13:46:44.872Z,9.10
2018-07-02T13:49:12.925Z,5.75
2018-07-02T13:51:41.338Z,7.75
2018-07-02T13:54:09.668Z,5.97
2018-07-02T13:56:38.398Z,6.55
2018-07-02T13:59:10.166Z,6.40
2018-07-02T14:01:39.749Z,6.55
2018-07-02T14:04:08.974Z,8.88
2018-07-02T14:06:37.095Z,6.47
2018-07-02T14:09:08.561Z,6.67
2018-07-02T14:11:37.003Z,9.28
2018-07-02T14:14:05.019Z,7.97
2018-07-02T14:16:33.568Z,7.60
2018-07-02T14:19:01.714Z,6.28
2018-07-02T14:21:29.733Z,8.55
2018-07-02T14:23:57.910Z,7.20
2018-07-02T14:26:26.175Z,7.15
2018-07-02T14:28:54.139Z,6.87
2018-07-02T14:31:22.098Z,7.17
2018-07-02T14:33:50.109Z,7.95
2018-07-02T14:36:19.182Z,9.00
2018-07-02T14:38:47.576Z,6.25
2018-07-02T14:41:15.707Z,9.35
2018-07-02T14:43:43.770Z,7.17
2018-07-02T14:46:11.976Z,8.33
2018-07-02T14:48:39.998Z,9.30
2018-07-02T14:51:08.032Z,8.75
2018-07-02T14:53:36.226Z,8.98
2018-07-02T14:56:04.280Z,8.58
2018-07-02T14:58:33.433Z,6.78
2018-07-02T15:01:08.603Z,8.40
2018-07-02T15:03:36.876Z,6.70
2018-07-02T15:06:04.961Z,7.65
2018-07-02T15:08:32.978Z,10.05
2018-07-02T15:11:01.033Z,7.53
2018-07-02T15:13:29.039Z,10.50
2018-07-02T15:15:57.002Z,7.87
2018-07-02T15:18:25.124Z,7.67
2018-07-02T15:20:53.166Z,8.35
2018-07-02T15:23:21.486Z,7.60
2018-07-02T15:25:50.076Z,7.00
2018-07-02T15:28:18.028Z,6.47
2018-07-02T15:30:46.170Z,6.30
2018-07-02T15:33:14.606Z,6.55
2018-07-02T15:35:42.682Z,6.87
2018-07-02T15:38:10.658Z,8.85
2018-07-02T15:40:38.736Z,7.35
2018-07-02T15:43:06.802Z,8.93
2018-07-02T15:45:36.047Z,7.37
2018-07-02T15:48:04.124Z,8.28
2018-07-02T15:50:32.426Z,6.83
2018-07-02T15:53:00.635Z,6.78
2018-07-02T15:55:28.675Z,8.98
2018-07-02T15:57:56.953Z,9.08
2018-07-02T16:00:25.955Z,8.30
2018-07-02T16:02:54.611Z,7.53
2018-07-02T16:05:22.678Z,8.45
2018-07-02T16:07:51.361Z,9.20
2018-07-02T16:10:19.367Z,8.28
2018-07-02T16:12:47.920Z,8.50
2018-07-02T16:15:15.973Z,7.92
2018-07-02T16:17:44.311Z,9.25
2018-07-02T16:20:12.453Z,11.48
2018-07-02T16:22:40.703Z,11.20
2018-07-02T16:25:08.885Z,12.75
2018-07-02T16:27:36.852Z,11.20
2018-07-02T16:30:06.547Z,12.03
2018-07-02T16:32:34.587Z,12.63
2018-07-02T16:35:02.813Z,11.80
2018-07-02T16:37:31.226Z,10.32
2018-07-02T16:39:59.250Z,10.53
2018-07-02T16:42:27.347Z,12.30
2018-07-02T16:44:55.420Z,10.35
2018-07-02T16:47:23.476Z,9.53
2018-07-02T16:49:51.569Z,10.40
2018-07-02T16:52:20.427Z,10.32
2018-07-02T16:54:48.498Z,11.80
2018-07-02T16:57:18.363Z,11.03
2018-07-02T16:59:48.163Z,12.37
2018-07-02T17:02:16.539Z,11.22
2018-07-02T17:04:44.635Z,12.07
2018-07-02T17:07:13.322Z,12.70
2018-07-02T17:09:42.586Z,11.88
2018-07-02T17:12:11.641Z,12.68
2018-07-02T17:14:39.752Z,11.93
2018-07-02T17:17:07.986Z,14.45
2018-07-02T17:19:36.069Z,12.58
2018-07-02T17:22:04.842Z,12.82
2018-07-02T17:24:33.095Z,13.70
2018-07-02T17:27:01.128Z,14.47
2018-07-02T17:29:29.084Z,13.75
2018-07-02T17:31:57.129Z,13.90
2018-07-02T17:34:25.287Z,10.80
2018-07-02T17:36:53.357Z,11.85
2018-07-02T17:39:21.458Z,15.48
2018-07-02T17:41:49.554Z,10.78
2018-07-02T17:44:17.520Z,11.63
2018-07-02T17:46:46.583Z,14.70
2018-07-02T17:49:14.603Z,13.70
2018-07-02T17:51:42.858Z,10.90
2018-07-02T17:54:11.711Z,13.55
2018-07-02T17:56:39.988Z,11.43
2018-07-02T17:59:08.696Z,11.88
2018-07-02T18:01:36.780Z,13.80
2018-07-02T18:04:04.893Z,13.60
2018-07-02T18:06:32.859Z,11.70
2018-07-02T18:09:01.025Z,11.08
2018-07-02T18:11:29.289Z,12.07
2018-07-02T18:13:57.229Z,12.85
2018-07-02T18:16:25.293Z,12.05
2018-07-02T18:18:54.916Z,11.90
2018-07-02T18:21:22.919Z,12.68
2018-07-02T18:23:50.946Z,13.22
2018-07-02T18:26:19.268Z,12.53
2018-07-02T18:28:47.417Z,13.40
2018-07-02T18:31:15.555Z,11.57
2018-07-02T18:33:43.755Z,19.07
2018-07-02T18:36:11.832Z,13.35
2018-07-02T18:38:42.411Z,15.63
2018-07-02T18:41:12.581Z,11.90
2018-07-02T18:43:42.361Z,11.38
2018-07-02T18:46:10.451Z,13.45
2018-07-02T18:48:38.583Z,13.15
2018-07-02T18:51:06.850Z,13.88
2018-07-02T18:53:34.881Z,10.58
2018-07-02T18:56:02.864Z,12.68
2018-07-02T18:58:31.487Z,15.20
2018-07-02T19:00:59.712Z,14.20
2018-07-02T19:03:27.746Z,15.50
2018-07-02T19:05:55.839Z,14.85
2018-07-02T19:08:24.391Z,17.55
2018-07-02T19:10:52.804Z,15.35
2018-07-02T19:13:20.999Z,13.15
2018-07-02T19:15:49.070Z,11.48
2018-07-02T19:18:17.162Z,16.25
2018-07-02T19:20:45.500Z,13.83
2018-07-02T19:23:13.602Z,12.53
2018-07-02T19:25:41.591Z,13.98
2018-07-02T19:28:09.754Z,12.60
2018-07-02T19:30:38.120Z,14.18
2018-07-02T19:33:06.229Z,12.73
2018-07-02T19:35:34.240Z,13.00
2018-07-02T19:38:02.309Z,13.78
2018-07-02T19:40:30.357Z,11.10
2018-07-02T19:42:58.523Z,14.78
2018-07-02T19:45:26.566Z,12.07
2018-07-02T19:47:54.628Z,12.78
2018-07-02T19:50:22.614Z,12.18
2018-07-02T19:52:50.551Z,13.03
2018-07-02T19:55:18.619Z,14.28
2018-07-02T19:57:46.818Z,15.18
2018-07-02T20:00:14.907Z,14.85
2018-07-02T20:02:43.052Z,15.03
2018-07-02T20:05:11.141Z,11.57
2018-07-02T20:07:39.993Z,13.90
2018-07-02T20:10:08.121Z,14.13
2018-07-02T20:12:36.838Z,14.03
2018-07-02T20:15:05.267Z,12.88
2018-07-02T20:17:33.279Z,15.28
2018-07-02T20:20:01.405Z,12.85
2018-07-02T20:22:29.467Z,13.20
2018-07-02T20:24:57.789Z,13.88
2018-07-02T20:27:25.711Z,13.05
2018-07-02T20:29:53.781Z,13.50
2018-07-02T20:32:21.888Z,12.15
2018-07-02T20:34:49.933Z,12.68
2018-07-02T20:37:17.867Z,12.40
2018-07-02T20:39:45.919Z,14.13
2018-07-02T20:42:13.943Z,15.55
2018-07-02T20:44:42.038Z,13.98
2018-07-02T20:47:10.039Z,15.03
2018-07-02T20:49:37.953Z,13.72
2018-07-02T20:52:05.966Z,12.65
2018-07-02T20:54:34.116Z,13.75
2018-07-02T20:57:02.276Z,12.23
2018-07-02T20:59:30.347Z,12.73
2018-07-02T21:01:58.312Z,13.72
2018-07-02T21:04:26.391Z,12.73
2018-07-02T21:06:54.502Z,13.05
2018-07-02T21:09:22.710Z,14.78
2018-07-02T21:11:50.700Z,13.95
2018-07-02T21:14:18.612Z,16.10
2018-07-02T21:16:46.780Z,14.25
2018-07-02T21:19:14.799Z,12.82
2018-07-02T21:21:42.830Z,14.03
2018-07-02T21:24:11.678Z,13.55
2018-07-02T21:26:40.081Z,16.93
2018-07-02T21:29:08.039Z,13.40
2018-07-02T21:31:36.063Z,13.20
2018-07-02T21:34:04.165Z,15.00
2018-07-02T21:36:32.242Z,13.22
2018-07-02T21:39:00.276Z,12.20
2018-07-02T21:41:28.308Z,13.65
2018-07-02T21:43:56.609Z,14.78
2018-07-02T21:46:24.558Z,13.25
2018-07-02T21:48:52.590Z,16.80
2018-07-02T21:51:20.712Z,14.30
2018-07-02T21:53:48.779Z,14.70
2018-07-02T21:56:16.790Z,15.43
2018-07-02T21:58:48.046Z,15.20
2018-07-02T22:01:20.160Z,14.13
2018-07-02T22:03:48.445Z,14.63
2018-07-02T22:06:16.893Z,15.95
2018-07-02T22:08:45.095Z,14.85
2018-07-02T22:11:13.112Z,14.63
2018-07-02T22:13:41.132Z,17.48
2018-07-02T22:16:09.219Z,14.93
2018-07-02T22:18:37.304Z,16.02
2018-07-02T22:21:05.245Z,13.90
2018-07-02T22:23:33.611Z,14.78
2018-07-02T22:26:01.630Z,15.50
2018-07-02T22:28:29.756Z,15.72
2018-07-02T22:30:57.751Z,14.15
2018-07-02T22:33:25.969Z,13.93
2018-07-02T22:35:54.094Z,14.68
2018-07-02T22:38:22.190Z,14.10
2018-07-02T22:40:50.314Z,15.20
2018-07-02T22:43:18.309Z,16.10
2018-07-02T22:45:46.247Z,15.85
2018-07-02T22:48:15.322Z,15.95
2018-07-02T22:50:43.354Z,15.38
2018-07-02T22:53:11.397Z,15.58
2018-07-02T22:55:50.951Z,15.78
2018-07-02T22:58:21.178Z,15.93
2018-07-02T23:00:49.130Z,16.75
2018-07-02T23:03:17.226Z,16.10
2018-07-02T23:05:45.294Z,16.25
2018-07-02T23:08:14.068Z,15.45
2018-07-02T23:10:42.036Z,14.38
2018-07-02T23:13:10.007Z,15.95
2018-07-02T23:15:38.460Z,15.08
2018-07-02T23:18:12.011Z,15.75
2018-07-02T23:20:40.429Z,14.23
2018-07-02T23:23:08.438Z,13.60
2018-07-02T23:25:36.353Z,15.38
2018-07-02T23:28:04.376Z,15.65
2018-07-02T23:30:33.130Z,15.63
2018-07-02T23:33:01.165Z,15.05
2018-07-02T23:35:29.198Z,15.55
2018-07-02T23:37:57.338Z,16.97
2018-07-02T23:40:25.938Z,14.87
2018-07-02T23:42:54.799Z,15.68
2018-07-02T23:45:23.691Z,15.88
2018-07-02T23:47:51.784Z,15.45
2018-07-02T23:50:19.931Z,15.70
2018-07-02T23:52:47.955Z,17.80
2018-07-02T23:55:15.971Z,15.08
2018-07-02T23:57:44.063Z,16.32
